Time;durP1;ratioP1;P1;durP2;ratioP2;P2;SDS_P1;SDS_P2;PMS_P1;PMS_P2;Temp;Humidity;BMP_temperature;BMP_pressure;BME280_temperature;BME280_humidity;BME280_pressure;Samples;Min_cycle;Max_cycle;Signal;HPM_P1;HPM_P2
2023/04/30 00:01:39;;;;;;;90.00;55.17;;;16.60;76.20;;;;;;5001473;28;97901;-85
2023/04/30 00:04:04;;;;;;;90.32;55.42;;;16.50;76.10;;;;;;5003761;28;96463;-84
2023/04/30 00:06:30;;;;;;;89.70;55.10;;;16.50;76.10;;;;;;5006428;28;94739;-85
2023/04/30 00:08:56;;;;;;;89.28;54.55;;;16.50;76.10;;;;;;5000575;28;98207;-85
2023/04/30 00:11:22;;;;;;;89.25;54.80;;;16.50;76.10;;;;;;5004267;28;98178;-85
2023/04/30 00:13:48;;;;;;;89.72;55.47;;;16.50;76.10;;;;;;5006425;28;94590;-85
2023/04/30 00:16:13;;;;;;;90.10;55.13;;;16.50;76.00;;;;;;5001328;28;95634;-85
2023/04/30 00:18:39;;;;;;;90.15;55.03;;;16.50;76.00;;;;;;5002684;28;98196;-85
2023/04/30 00:21:05;;;;;;;89.63;55.45;;;16.50;76.00;;;;;;5000266;28;95521;-86
2023/04/30 00:23:30;;;;;;;89.28;55.25;;;16.50;75.90;;;;;;5003837;28;94344;-85
2023/04/30 00:25:56;;;;;;;91.78;55.58;;;16.50;75.90;;;;;;5005773;28;94806;-87
2023/04/30 00:28:21;;;;;;;89.43;54.83;;;16.50;75.90;;;;;;5008235;28;96472;-86
2023/04/30 00:30:47;;;;;;;90.00;55.33;;;16.40;75.80;;;;;;5003137;28;96072;-85
2023/04/30 00:33:13;;;;;;;90.05;55.13;;;16.40;75.80;;;;;;5004391;28;95037;-85
2023/04/30 00:35:38;;;;;;;89.72;55.20;;;16.40;75.70;;;;;;5006285;28;94594;-85
2023/04/30 00:38:04;;;;;;;89.63;55.15;;;16.40;75.70;;;;;;5010564;28;95877;-85
2023/04/30 00:40:30;;;;;;;90.30;56.08;;;16.40;75.80;;;;;;5004667;28;94989;-84
2023/04/30 00:42:56;;;;;;;89.38;55.15;;;16.40;75.70;;;;;;4997489;28;94781;-86
2023/04/30 00:45:22;;;;;;;90.18;55.45;;;16.40;75.70;;;;;;5008498;28;93865;-86
2023/04/30 00:47:48;;;;;;;89.38;55.40;;;16.40;75.60;;;;;;5008107;28;96250;-87
2023/04/30 00:50:15;;;;;;;90.47;55.30;;;16.40;76.40;;;;;;5006013;28;97573;-87
2023/04/30 00:52:44;;;;;;;89.82;55.08;;;16.40;75.60;;;;;;5008520;28;95287;-87
2023/04/30 00:55:12;;;;;;;90.72;55.33;;;16.30;75.60;;;;;;5001518;28;94624;-87
2023/04/30 00:57:41;;;;;;;90.57;55.15;;;16.40;75.50;;;;;;5003047;28;95293;-86
2023/04/30 01:00:10;;;;;;;89.28;54.95;;;16.30;75.50;;;;;;4995402;28;95136;-87
2023/04/30 01:02:36;;;;;;;91.00;55.63;;;16.30;75.30;;;;;;5003325;28;94914;-87
2023/04/30 01:05:06;;;;;;;90.97;55.25;;;16.30;75.40;;;;;;4998920;28;96260;-83
2023/04/30 01:07:34;;;;;;;89.40;55.05;;;16.30;75.30;;;;;;4998071;28;95352;-83
2023/04/30 01:10:00;;;;;;;89.88;55.35;;;16.30;75.40;;;;;;5008271;28;97940;-83
2023/04/30 01:12:47;;;;;;;88.40;54.47;;;16.30;75.40;;;;;;5008993;28;94814;-83
2023/04/30 01:15:31;;;;;;;89.35;54.75;;;16.30;75.40;;;;;;5001431;28;94711;-83
2023/04/30 01:18:17;;;;;;;89.25;54.72;;;16.20;75.20;;;;;;5005034;28;96547;-83
2023/04/30 01:20:53;;;;;;;89.00;55.10;;;16.20;75.30;;;;;;5004209;28;96528;-83
2023/04/30 01:23:31;;;;;;;90.40;55.15;;;16.20;75.20;;;;;;5006172;28;95801;-82
2023/04/30 01:26:05;;;;;;;89.53;54.88;;;16.20;75.20;;;;;;5004582;28;94798;-83
2023/04/30 01:28:34;;;;;;;88.68;54.85;;;16.20;75.10;;;;;;5004833;28;95030;-83
2023/04/30 01:31:00;;;;;;;90.28;54.63;;;16.20;75.00;;;;;;5005812;28;97138;-87
2023/04/30 01:33:25;;;;;;;89.38;54.83;;;16.20;75.10;;;;;;4998891;28;94597;-86
2023/04/30 01:36:22;;;;;;;90.20;55.28;;;16.10;75.10;;;;;;5008162;28;93325;-87
2023/04/30 01:39:28;;;;;;;88.50;54.75;;;16.10;75.00;;;;;;5003602;28;98075;-87
2023/04/30 01:41:57;;;;;;;89.40;54.58;;;16.10;75.00;;;;;;5001317;28;95368;-87
2023/04/30 01:44:38;;;;;;;89.80;54.60;;;16.10;75.00;;;;;;5004667;28;95648;-87
2023/04/30 01:47:11;;;;;;;89.72;54.97;;;16.10;75.00;;;;;;4996163;28;94600;-87
2023/04/30 01:49:56;;;;;;;88.45;54.53;;;16.10;74.80;;;;;;5002263;28;97168;-87
2023/04/30 01:52:46;;;;;;;90.28;55.08;;;16.10;74.90;;;;;;5006207;28;94435;-87
2023/04/30 01:55:32;;;;;;;88.95;55.00;;;16.10;75.00;;;;;;5013051;27;94469;-87
2023/04/30 01:58:05;;;;;;;89.32;55.10;;;16.10;74.90;;;;;;4991671;28;94476;-87
2023/04/30 02:00:32;;;;;;;88.88;54.63;;;16.10;74.80;;;;;;5000719;28;97995;-87
2023/04/30 02:02:58;;;;;;;89.85;54.63;;;16.10;74.80;;;;;;5000082;28;94045;-87
2023/04/30 02:05:24;;;;;;;89.03;55.08;;;16.00;74.80;;;;;;5005716;28;93953;-87
2023/04/30 02:07:50;;;;;;;88.40;54.90;;;16.00;74.70;;;;;;5006698;28;94377;-87
2023/04/30 02:10:19;;;;;;;90.38;54.80;;;16.00;74.60;;;;;;5003904;28;99557;-87
2023/04/30 02:12:45;;;;;;;89.32;54.88;;;16.00;74.80;;;;;;5007522;27;95998;-87
2023/04/30 02:15:11;;;;;;;87.65;54.33;;;16.00;74.60;;;;;;5006001;28;94586;-88
2023/04/30 02:17:37;;;;;;;88.85;54.58;;;16.00;74.60;;;;;;5014371;27;94402;-87
2023/04/30 02:20:03;;;;;;;88.60;55.13;;;16.00;74.60;;;;;;5003056;28;97873;-87
2023/04/30 02:22:29;;;;;;;88.07;54.50;;;16.00;74.60;;;;;;5006479;28;98123;-87
2023/04/30 02:24:56;;;;;;;89.30;55.22;;;15.90;74.60;;;;;;5001499;28;94825;-87
2023/04/30 02:27:24;;;;;;;88.70;54.88;;;15.90;74.60;;;;;;5007174;28;93969;-87
2023/04/30 02:29:49;;;;;;;87.97;54.53;;;16.00;74.60;;;;;;5008402;28;98159;-87
2023/04/30 02:32:15;;;;;;;91.88;55.40;;;15.90;74.50;;;;;;5006867;27;94902;-87
2023/04/30 02:34:41;;;;;;;86.97;54.03;;;15.90;74.60;;;;;;5010971;28;95402;-87
2023/04/30 02:37:07;;;;;;;88.30;54.60;;;15.90;74.60;;;;;;5013319;28;94231;-87
2023/04/30 02:39:33;;;;;;;87.70;54.55;;;15.90;74.40;;;;;;5006430;28;98493;-87
2023/04/30 02:41:59;;;;;;;89.28;54.63;;;15.90;74.40;;;;;;5007219;28;95406;-87
2023/04/30 02:44:25;;;;;;;89.38;54.58;;;15.90;74.40;;;;;;5005539;28;94841;-78
2023/04/30 02:46:51;;;;;;;88.00;54.35;;;15.90;74.40;;;;;;5003293;28;94579;-78
2023/04/30 02:49:16;;;;;;;87.78;54.55;;;15.80;74.40;;;;;;5007836;28;95963;-82
2023/04/30 02:51:42;;;;;;;89.10;54.13;;;15.80;74.20;;;;;;5007610;28;94309;-80
2023/04/30 02:54:08;;;;;;;89.05;54.38;;;15.80;74.50;;;;;;5009867;28;94431;-81
2023/04/30 02:56:34;;;;;;;88.00;54.05;;;15.80;74.50;;;;;;5002463;28;94457;-80
2023/04/30 02:59:00;;;;;;;88.32;54.60;;;15.80;74.50;;;;;;5006342;28;96858;-86
2023/04/30 03:01:26;;;;;;;89.88;54.17;;;15.80;74.50;;;;;;5011821;28;99109;-88
2023/04/30 03:03:51;;;;;;;89.22;54.38;;;15.80;74.40;;;;;;5005875;28;95937;-80
2023/04/30 03:06:17;;;;;;;88.97;54.58;;;15.80;74.30;;;;;;5001847;28;94792;-78
2023/04/30 03:08:43;;;;;;;88.60;54.55;;;15.80;74.30;;;;;;5007963;28;95463;-79
2023/04/30 03:11:09;;;;;;;88.40;54.67;;;15.80;74.30;;;;;;5003806;28;99979;-78
2023/04/30 03:13:34;;;;;;;88.90;54.63;;;15.70;74.20;;;;;;4998160;28;94995;-79
2023/04/30 03:16:03;;;;;;;89.28;54.47;;;15.70;74.20;;;;;;5005215;28;93855;-79
2023/04/30 03:18:29;;;;;;;89.15;54.67;;;15.70;74.30;;;;;;5007396;28;98572;-79
2023/04/30 03:20:55;;;;;;;89.75;54.45;;;15.70;74.30;;;;;;5003403;28;98064;-86
2023/04/30 03:23:21;;;;;;;87.90;54.63;;;15.70;74.20;;;;;;5001374;28;95171;-85
2023/04/30 03:25:47;;;;;;;89.65;55.05;;;15.70;74.20;;;;;;5002683;28;94547;-85
2023/04/30 03:28:12;;;;;;;88.60;54.50;;;15.70;74.20;;;;;;4998643;28;95452;-87
2023/04/30 03:30:38;;;;;;;88.88;54.10;;;15.70;74.20;;;;;;5001393;28;97514;-84
2023/04/30 03:33:06;;;;;;;89.32;54.13;;;15.70;74.20;;;;;;5000407;28;94476;-86
2023/04/30 03:35:33;;;;;;;88.63;54.40;;;15.70;74.10;;;;;;5003834;28;94174;-85
2023/04/30 03:38:00;;;;;;;87.13;53.80;;;15.70;74.10;;;;;;5005631;28;98236;-85
2023/04/30 03:40:26;;;;;;;87.32;54.10;;;15.60;74.10;;;;;;5007659;28;98290;-85
2023/04/30 03:42:51;;;;;;;89.78;54.40;;;15.70;74.20;;;;;;5009988;28;95250;-85
2023/04/30 03:45:17;;;;;;;87.50;54.25;;;15.60;74.10;;;;;;5011761;28;94523;-87
2023/04/30 03:47:43;;;;;;;87.45;54.28;;;15.60;74.10;;;;;;5008250;28;95737;-87
2023/04/30 03:50:09;;;;;;;90.32;54.38;;;15.60;74.10;;;;;;5009495;28;98969;-88
2023/04/30 03:52:35;;;;;;;88.63;54.53;;;15.60;74.10;;;;;;5007108;28;94517;-88
2023/04/30 03:55:05;;;;;;;87.20;54.28;;;15.60;74.10;;;;;;5013551;28;94911;-85
2023/04/30 03:57:31;;;;;;;87.25;54.05;;;15.60;74.00;;;;;;5002394;28;95376;-84
2023/04/30 03:59:57;;;;;;;87.90;54.20;;;15.60;74.00;;;;;;5010445;28;94639;-85
2023/04/30 04:02:24;;;;;;;87.97;53.95;;;15.60;74.00;;;;;;5014766;27;94583;-84
2023/04/30 04:04:50;;;;;;;87.03;54.03;;;15.60;74.10;;;;;;5003746;28;93596;-85
2023/04/30 04:07:15;;;;;;;88.22;54.08;;;15.60;74.10;;;;;;5001383;28;98118;-84
2023/04/30 04:09:41;;;;;;;86.57;53.45;;;15.60;74.00;;;;;;5006993;28;98670;-78
2023/04/30 04:12:07;;;;;;;87.50;54.45;;;15.60;74.00;;;;;;5006820;28;96091;-82
2023/04/30 04:14:33;;;;;;;88.22;54.15;;;15.50;74.00;;;;;;5004661;28;94394;-78
2023/04/30 04:16:59;;;;;;;88.53;54.00;;;15.60;74.00;;;;;;5004094;28;94655;-78
2023/04/30 04:19:25;;;;;;;88.07;53.90;;;15.50;73.80;;;;;;5007513;28;97871;-83
2023/04/30 04:21:51;;;;;;;88.10;54.03;;;15.50;73.80;;;;;;5004096;28;94859;-83
2023/04/30 04:24:17;;;;;;;87.57;54.08;;;15.50;73.90;;;;;;5002345;28;93883;-82
2023/04/30 04:26:43;;;;;;;88.57;54.10;;;15.50;73.70;;;;;;5013260;28;96121;-81
2023/04/30 04:29:09;;;;;;;87.22;54.20;;;15.50;73.70;;;;;;5006232;28;94786;-83
2023/04/30 04:31:35;;;;;;;87.10;53.70;;;15.50;73.70;;;;;;5002072;28;94063;-83
2023/04/30 04:34:03;;;;;;;86.95;53.85;;;15.50;73.70;;;;;;5020252;27;94702;-83
2023/04/30 04:36:29;;;;;;;86.45;53.38;;;15.50;73.70;;;;;;5009638;27;95887;-83
2023/04/30 04:39:01;;;;;;;86.47;53.67;;;15.40;73.60;;;;;;5014375;28;95681;-83
2023/04/30 04:41:36;;;;;;;86.25;53.28;;;15.50;73.80;;;;;;5007896;28;94072;-83
2023/04/30 04:44:03;;;;;;;89.78;53.38;;;15.40;73.70;;;;;;5006031;28;94703;-82
2023/04/30 04:46:30;;;;;;;86.10;53.38;;;15.40;73.80;;;;;;5008773;28;94948;-82
2023/04/30 04:48:57;;;;;;;88.13;53.53;;;15.40;73.80;;;;;;5004716;28;94944;-83
2023/04/30 04:51:23;;;;;;;87.28;53.83;;;15.40;73.70;;;;;;5005536;28;94678;-83
2023/04/30 04:53:49;;;;;;;85.80;53.42;;;15.40;73.70;;;;;;5002058;28;94781;-82
2023/04/30 04:56:15;;;;;;;87.53;53.50;;;15.40;73.70;;;;;;5001876;28;95934;-83
2023/04/30 04:58:41;;;;;;;85.88;53.25;;;15.40;73.70;;;;;;5005563;28;98495;-82
2023/04/30 05:01:08;;;;;;;86.10;53.13;;;15.40;73.70;;;;;;5003041;28;95747;-83
2023/04/30 05:03:35;;;;;;;87.78;53.60;;;15.40;73.70;;;;;;5002964;28;94690;-83
2023/04/30 05:06:04;;;;;;;86.50;53.22;;;15.40;73.80;;;;;;5004519;28;98846;-82
2023/04/30 05:08:30;;;;;;;87.07;53.63;;;15.40;73.80;;;;;;5003728;28;97757;-82
2023/04/30 05:10:56;;;;;;;87.50;53.25;;;15.40;73.70;;;;;;5000985;28;94492;-84
2023/04/30 05:13:22;;;;;;;86.75;53.60;;;15.40;73.70;;;;;;5001841;28;94783;-83
2023/04/30 05:15:52;;;;;;;87.72;53.67;;;15.40;73.80;;;;;;4997882;28;97592;-85
2023/04/30 05:18:18;;;;;;;86.13;53.47;;;15.40;73.70;;;;;;5003609;28;94345;-85
2023/04/30 05:20:44;;;;;;;86.07;53.60;;;15.40;73.70;;;;;;5000786;28;94073;-85
2023/04/30 05:23:10;;;;;;;85.63;53.15;;;15.40;73.70;;;;;;5002415;28;94509;-86
2023/04/30 05:25:35;;;;;;;86.40;53.47;;;15.30;73.70;;;;;;5000489;28;96286;-86
2023/04/30 05:28:02;;;;;;;87.38;53.40;;;15.40;73.80;;;;;;4997854;28;99890;-86
2023/04/30 05:30:28;;;;;;;85.90;53.30;;;15.30;73.70;;;;;;5009801;28;95223;-88
2023/04/30 05:32:55;;;;;;;85.93;52.92;;;15.40;73.80;;;;;;4999769;28;94514;-85
2023/04/30 05:35:21;;;;;;;86.50;52.97;;;15.40;73.80;;;;;;4999026;28;94984;-86
2023/04/30 05:37:47;;;;;;;87.65;53.72;;;15.30;73.60;;;;;;4992905;28;94735;-85
2023/04/30 05:40:13;;;;;;;86.88;53.33;;;15.30;73.80;;;;;;5006239;28;94543;-86
2023/04/30 05:42:39;;;;;;;88.15;53.42;;;15.30;73.80;;;;;;5000588;28;94271;-85
2023/04/30 05:45:07;;;;;;;86.43;53.05;;;15.30;73.80;;;;;;4995951;28;99827;-86
2023/04/30 05:47:32;;;;;;;90.03;53.92;;;15.30;73.90;;;;;;5000256;28;95268;-86
2023/04/30 05:49:59;;;;;;;86.95;53.13;;;15.40;74.00;;;;;;5003435;28;100873;-86
2023/04/30 05:52:25;;;;;;;88.07;53.40;;;15.30;73.90;;;;;;4999090;28;95172;-87
2023/04/30 05:54:51;;;;;;;87.80;53.47;;;15.30;73.80;;;;;;5005012;28;94814;-85
2023/04/30 05:57:17;;;;;;;88.13;53.53;;;15.30;73.90;;;;;;5001854;28;95247;-86
2023/04/30 05:59:43;;;;;;;87.40;53.97;;;15.30;73.80;;;;;;4996712;28;94673;-87
2023/04/30 06:02:08;;;;;;;88.93;54.10;;;15.30;73.70;;;;;;4999153;28;94645;-87
2023/04/30 06:04:35;;;;;;;87.88;53.60;;;15.40;73.70;;;;;;5012237;27;98491;-86
2023/04/30 06:07:00;;;;;;;86.63;53.13;;;15.30;73.70;;;;;;4994374;28;98437;-86
2023/04/30 06:09:26;;;;;;;90.07;53.72;;;15.30;73.90;;;;;;5003709;28;94435;-87
2023/04/30 06:11:52;;;;;;;87.63;53.40;;;15.30;74.00;;;;;;5003884;28;94347;-88
2023/04/30 06:14:19;;;;;;;89.18;53.22;;;15.30;74.00;;;;;;5001786;28;98694;-89
2023/04/30 06:16:45;;;;;;;89.82;53.53;;;15.30;74.10;;;;;;5002236;28;99068;-88
2023/04/30 06:19:11;;;;;;;88.93;53.38;;;15.30;74.10;;;;;;5003385;28;95022;-88
2023/04/30 06:21:36;;;;;;;87.90;53.10;;;15.30;74.30;;;;;;5008960;28;94287;-86
2023/04/30 06:24:02;;;;;;;90.20;53.53;;;15.30;74.30;;;;;;5009854;28;99407;-89
2023/04/30 06:26:28;;;;;;;92.28;54.03;;;15.40;74.30;;;;;;4996552;28;97451;-88
2023/04/30 06:28:54;;;;;;;93.10;53.63;;;15.30;74.60;;;;;;5002647;28;94562;-87
2023/04/30 06:31:20;;;;;;;89.80;53.65;;;15.40;74.80;;;;;;5005999;28;93438;-85
2023/04/30 06:33:46;;;;;;;87.70;53.35;;;15.30;75.00;;;;;;5004945;28;95393;-88
2023/04/30 06:36:12;;;;;;;91.50;53.38;;;15.40;75.20;;;;;;5001324;28;95055;-88
2023/04/30 06:38:37;;;;;;;92.68;53.50;;;15.40;75.10;;;;;;5001931;28;95543;-87
2023/04/30 06:41:03;;;;;;;90.70;53.53;;;15.40;74.90;;;;;;5000862;28;94712;-86
2023/04/30 06:43:29;;;;;;;88.63;53.63;;;15.40;74.80;;;;;;5005012;28;97571;-87
2023/04/30 06:45:54;;;;;;;89.03;53.55;;;15.40;75.00;;;;;;5005590;28;94917;-88
2023/04/30 06:48:20;;;;;;;89.53;53.90;;;15.40;74.90;;;;;;5003855;28;99056;-87
2023/04/30 06:50:46;;;;;;;89.07;53.33;;;15.40;75.00;;;;;;5002872;28;94295;-87
2023/04/30 06:53:12;;;;;;;93.63;53.50;;;15.40;75.00;;;;;;4999062;28;97906;-87
2023/04/30 06:55:38;;;;;;;89.20;53.55;;;15.40;75.00;;;;;;4997231;28;98133;-88
2023/04/30 06:58:04;;;;;;;90.43;53.22;;;15.50;75.30;;;;;;4996287;28;95244;-89
2023/04/30 07:00:30;;;;;;;95.55;54.55;;;15.50;75.40;;;;;;5000741;28;100050;-87
2023/04/30 07:02:59;;;;;;;97.25;55.17;;;15.50;75.90;;;;;;5000379;28;98839;-89
2023/04/30 07:05:25;;;;;;;98.18;55.85;;;15.50;76.40;;;;;;4996072;28;96135;-89
2023/04/30 07:07:51;;;;;;;93.78;55.38;;;15.50;76.80;;;;;;4998392;28;96000;-89
2023/04/30 07:10:17;;;;;;;97.82;55.05;;;15.50;76.40;;;;;;4996784;28;94042;-87
2023/04/30 07:12:43;;;;;;;100.63;55.40;;;15.50;76.50;;;;;;4998431;28;95378;-89
2023/04/30 07:15:12;;;;;;;99.10;55.22;;;15.50;76.80;;;;;;5001704;28;95435;-88
2023/04/30 07:17:38;;;;;;;102.72;56.35;;;15.50;77.40;;;;;;5000106;28;94406;-89
2023/04/30 07:20:04;;;;;;;103.72;55.90;;;15.60;77.60;;;;;;5005247;28;93949;-90
2023/04/30 07:22:30;;;;;;;97.03;55.50;;;15.60;77.50;;;;;;5006037;28;96948;-89
2023/04/30 07:24:56;;;;;;;97.20;55.35;;;15.60;77.40;;;;;;5008958;28;95504;-86
2023/04/30 07:27:22;;;;;;;100.22;55.25;;;15.60;77.30;;;;;;5004714;28;95456;-86
2023/04/30 07:29:48;;;;;;;98.85;54.65;;;15.60;77.30;;;;;;5001947;28;94201;-85
2023/04/30 07:32:15;;;;;;;94.75;54.92;;;15.60;77.10;;;;;;5006292;28;98552;-84
2023/04/30 07:34:41;;;;;;;92.50;54.35;;;15.60;77.00;;;;;;5008798;28;98018;-81
2023/04/30 07:37:08;;;;;;;93.07;54.72;;;15.60;77.10;;;;;;5006095;28;94463;-82
2023/04/30 07:39:34;;;;;;;93.63;54.17;;;15.60;76.90;;;;;;5008314;28;94439;-81
2023/04/30 07:42:02;;;;;;;94.97;54.92;;;15.60;76.90;;;;;;5009378;28;98321;-81
2023/04/30 07:44:27;;;;;;;97.10;54.33;;;15.70;76.60;;;;;;5007446;28;95656;-81
2023/04/30 07:46:53;;;;;;;95.03;54.60;;;15.60;76.30;;;;;;5005857;28;96182;-81
2023/04/30 07:49:19;;;;;;;92.07;54.33;;;15.60;76.30;;;;;;5009641;28;96201;-81
2023/04/30 07:51:45;;;;;;;93.63;54.10;;;15.60;76.20;;;;;;5000650;28;96082;-81
2023/04/30 07:54:10;;;;;;;92.72;54.60;;;15.70;76.20;;;;;;4999851;28;96338;-81
2023/04/30 07:56:36;;;;;;;91.05;54.00;;;15.70;76.00;;;;;;5008731;28;94868;-81
2023/04/30 07:59:02;;;;;;;93.63;54.72;;;15.70;76.00;;;;;;5009682;28;94430;-81
2023/04/30 08:01:27;;;;;;;90.85;54.13;;;15.70;75.80;;;;;;5005428;28;98530;-81
2023/04/30 08:03:53;;;;;;;94.03;54.40;;;15.70;75.60;;;;;;5007954;28;94586;-82
2023/04/30 08:06:19;;;;;;;92.20;53.72;;;15.70;75.50;;;;;;5003131;28;95899;-81
2023/04/30 08:08:45;;;;;;;90.32;53.75;;;15.80;75.50;;;;;;5006364;28;93853;-82
2023/04/30 08:11:11;;;;;;;99.07;53.95;;;15.80;75.40;;;;;;5004427;28;95152;-81
2023/04/30 08:13:37;;;;;;;90.55;53.97;;;15.80;75.30;;;;;;5005203;28;94680;-81
2023/04/30 08:16:02;;;;;;;95.25;54.20;;;15.80;75.20;;;;;;5014907;28;96923;-83
2023/04/30 08:18:28;;;;;;;91.68;53.30;;;15.80;75.20;;;;;;5015369;27;94161;-81
2023/04/30 08:20:54;;;;;;;90.10;53.20;;;15.80;75.10;;;;;;5004334;28;98338;-81
2023/04/30 08:23:20;;;;;;;90.22;53.60;;;15.90;75.00;;;;;;5004390;27;95431;-81
2023/04/30 08:25:45;;;;;;;88.88;53.58;;;15.90;75.00;;;;;;5015987;27;95349;-81
2023/04/30 08:28:11;;;;;;;91.05;53.97;;;15.90;74.90;;;;;;5003808;28;94477;-81
2023/04/30 08:30:38;;;;;;;91.20;53.80;;;15.90;74.90;;;;;;5005686;28;95359;-81
2023/04/30 08:33:03;;;;;;;90.63;53.88;;;15.90;74.90;;;;;;5006303;28;97991;-81
2023/04/30 08:35:29;;;;;;;90.95;54.30;;;15.90;74.90;;;;;;5005314;28;94455;-81
2023/04/30 08:37:55;;;;;;;93.43;53.60;;;15.90;74.70;;;;;;5006377;28;95063;-81
2023/04/30 08:40:21;;;;;;;91.85;53.53;;;15.90;75.50;;;;;;5002496;28;98795;-81
2023/04/30 08:42:59;;;;;;;90.90;54.30;;;15.90;74.60;;;;;;5008387;28;95592;-81
2023/04/30 08:45:25;;;;;;;93.95;53.42;;;15.90;74.70;;;;;;5006675;28;94344;-81
2023/04/30 08:47:51;;;;;;;91.50;54.25;;;16.00;74.70;;;;;;5006357;28;94738;-81
2023/04/30 08:50:17;;;;;;;91.25;54.00;;;16.00;74.70;;;;;;5002900;28;98172;-81
2023/04/30 08:52:43;;;;;;;91.55;54.72;;;16.00;74.80;;;;;;5001816;28;94753;-81
2023/04/30 08:55:09;;;;;;;92.28;54.00;;;16.00;74.70;;;;;;5008671;28;95636;-82
2023/04/30 08:57:36;;;;;;;90.70;53.97;;;16.00;74.80;;;;;;5023390;27;93441;-81
2023/04/30 09:00:02;;;;;;;90.43;53.92;;;16.00;74.80;;;;;;5006878;28;95875;-81
2023/04/30 09:02:31;;;;;;;90.13;53.50;;;16.10;74.80;;;;;;5001714;28;97946;-81
2023/04/30 09:04:57;;;;;;;93.32;54.83;;;16.00;74.80;;;;;;5001338;28;95689;-81
2023/04/30 09:07:24;;;;;;;91.28;53.95;;;16.10;74.80;;;;;;5011882;28;93979;-81
2023/04/30 09:09:52;;;;;;;91.30;54.33;;;16.00;74.80;;;;;;5007001;28;94979;-81
2023/04/30 09:12:18;;;;;;;90.07;53.85;;;16.10;74.90;;;;;;5008934;28;94805;-81
2023/04/30 09:15:03;;;;;;;91.50;53.83;;;16.10;74.90;;;;;;5018080;27;94178;-81
2023/04/30 09:17:30;;;;;;;90.68;53.60;;;16.10;74.90;;;;;;4999535;28;95635;-81
2023/04/30 09:20:10;;;;;;;90.47;53.85;;;16.10;75.00;;;;;;5005339;28;98045;-81
2023/04/30 09:22:37;;;;;;;89.90;53.80;;;16.10;75.00;;;;;;5001039;28;98542;-82
2023/04/30 09:25:04;;;;;;;92.00;54.17;;;16.10;75.00;;;;;;5006395;28;94703;-82
2023/04/30 09:27:30;;;;;;;90.53;53.70;;;16.10;74.90;;;;;;5007021;28;94371;-81
2023/04/30 09:29:56;;;;;;;90.35;53.67;;;16.10;74.80;;;;;;4999955;28;99116;-81
2023/04/30 09:32:21;;;;;;;92.72;53.72;;;16.20;74.90;;;;;;5003405;28;95265;-81
2023/04/30 09:34:47;;;;;;;90.43;53.80;;;16.20;75.00;;;;;;5004462;28;95564;-81
2023/04/30 09:37:13;;;;;;;91.53;53.78;;;16.20;74.90;;;;;;5005178;28;94930;-82
2023/04/30 09:39:49;;;;;;;92.35;53.95;;;16.20;74.90;;;;;;5004484;28;94674;-81
2023/04/30 09:42:15;;;;;;;91.07;54.15;;;16.20;74.90;;;;;;5010315;28;94759;-81
2023/04/30 09:44:42;;;;;;;90.97;53.85;;;16.20;74.90;;;;;;5004827;28;94347;-80
2023/04/30 09:47:14;;;;;;;90.43;53.50;;;16.20;74.90;;;;;;5013081;28;93385;-81
2023/04/30 09:49:50;;;;;;;89.90;54.10;;;16.20;75.00;;;;;;5010523;27;95148;-81
2023/04/30 09:52:16;;;;;;;89.72;53.65;;;16.20;75.00;;;;;;5006354;28;95167;-81
2023/04/30 09:54:44;;;;;;;90.40;53.75;;;16.30;75.00;;;;;;5010330;28;95569;-81
2023/04/30 09:57:12;;;;;;;89.80;53.17;;;16.20;75.00;;;;;;5004189;28;94235;-81
2023/04/30 09:59:42;;;;;;;90.68;53.83;;;16.20;74.90;;;;;;4998875;28;95621;-82
2023/04/30 10:02:08;;;;;;;91.47;53.78;;;16.30;75.00;;;;;;5008614;27;95740;-81
2023/04/30 10:04:43;;;;;;;91.93;53.30;;;16.30;75.00;;;;;;5009004;28;94440;-81
2023/04/30 10:07:16;;;;;;;91.47;53.60;;;16.30;75.00;;;;;;4991780;28;94340;-81
2023/04/30 10:09:50;;;;;;;90.10;53.63;;;16.30;75.10;;;;;;4995489;28;95735;-82
2023/04/30 10:12:24;;;;;;;91.95;53.80;;;16.30;75.00;;;;;;4999203;28;94737;-81
2023/04/30 10:15:01;;;;;;;91.18;53.85;;;16.30;75.10;;;;;;5001644;28;94813;-81
2023/04/30 10:17:31;;;;;;;89.97;53.35;;;16.30;75.00;;;;;;5000835;28;94095;-81
2023/04/30 10:20:04;;;;;;;90.27;52.97;;;16.30;75.10;;;;;;5003031;28;97012;-81
2023/04/30 10:22:31;;;;;;;89.35;53.40;;;16.30;75.10;;;;;;5007083;28;95624;-82
2023/04/30 10:24:58;;;;;;;89.72;53.17;;;16.40;75.20;;;;;;5007764;28;95099;-82
2023/04/30 10:27:24;;;;;;;89.65;53.25;;;16.40;75.20;;;;;;5001405;28;94550;-81
2023/04/30 10:29:50;;;;;;;90.15;53.70;;;16.40;75.20;;;;;;4999160;28;98509;-81
2023/04/30 10:32:17;;;;;;;91.07;53.33;;;16.40;75.30;;;;;;5004308;28;95017;-80
2023/04/30 10:34:49;;;;;;;91.30;53.45;;;16.40;75.20;;;;;;5010111;28;94566;-81
2023/04/30 10:37:47;;;;;;;91.35;53.33;;;16.40;75.30;;;;;;5005611;28;93956;-83
2023/04/30 10:40:13;;;;;;;91.55;53.38;;;16.40;75.20;;;;;;5024966;27;97924;-81
2023/04/30 10:42:47;;;;;;;90.57;53.50;;;16.40;75.20;;;;;;5009400;28;95475;-81
2023/04/30 10:45:16;;;;;;;92.25;53.50;;;16.40;75.20;;;;;;5006892;28;95152;-81
2023/04/30 10:47:44;;;;;;;91.60;53.65;;;16.50;75.30;;;;;;5004341;28;94554;-81
2023/04/30 10:50:10;;;;;;;90.05;53.15;;;16.50;75.20;;;;;;5022328;27;98812;-82
2023/04/30 10:52:37;;;;;;;90.88;53.33;;;16.50;75.30;;;;;;5013771;28;95506;-81
2023/04/30 10:55:09;;;;;;;91.85;53.55;;;16.50;75.20;;;;;;5007797;28;94472;-81
2023/04/30 10:57:43;;;;;;;92.93;53.33;;;16.50;75.20;;;;;;5007851;28;94212;-81
2023/04/30 11:00:09;;;;;;;92.07;53.15;;;16.50;75.20;;;;;;5005637;28;98108;-81
2023/04/30 11:02:47;;;;;;;93.18;53.72;;;16.50;75.20;;;;;;5006113;28;95570;-81
2023/04/30 11:05:13;;;;;;;90.03;53.40;;;16.50;75.20;;;;;;5006604;28;94396;-81
2023/04/30 11:07:57;;;;;;;89.78;53.40;;;16.60;75.20;;;;;;5006641;28;94544;-81
2023/04/30 11:10:26;;;;;;;89.95;53.40;;;16.60;75.30;;;;;;4993691;28;95994;-83
2023/04/30 11:12:53;;;;;;;89.30;53.35;;;16.60;75.30;;;;;;5006933;28;99314;-80
2023/04/30 11:15:26;;;;;;;89.97;53.28;;;16.60;75.30;;;;;;5010138;28;94643;-81
2023/04/30 11:17:59;;;;;;;90.40;53.38;;;16.60;75.30;;;;;;5011661;28;95181;-81
2023/04/30 11:20:25;;;;;;;90.60;53.50;;;16.60;75.30;;;;;;5005048;28;94892;-81
2023/04/30 11:23:14;;;;;;;88.90;53.03;;;16.60;75.30;;;;;;5007760;28;96904;-81
2023/04/30 11:25:44;;;;;;;90.95;53.40;;;16.60;75.20;;;;;;5006640;28;94702;-81
2023/04/30 11:28:16;;;;;;;90.40;52.95;;;16.70;75.30;;;;;;5011837;28;93874;-81
2023/04/30 11:30:53;;;;;;;89.80;53.33;;;16.70;75.20;;;;;;5012563;28;96595;-81
2023/04/30 11:33:20;;;;;;;90.75;53.47;;;16.70;75.20;;;;;;5002946;28;94584;-81
2023/04/30 11:35:51;;;;;;;90.75;53.55;;;16.70;75.20;;;;;;5004397;28;95426;-81
2023/04/30 11:38:21;;;;;;;89.32;53.15;;;16.70;75.20;;;;;;5008221;28;94744;-81
2023/04/30 11:40:48;;;;;;;88.88;53.08;;;16.70;75.20;;;;;;5011868;28;95301;-81
2023/04/30 11:43:24;;;;;;;90.63;53.33;;;16.70;75.20;;;;;;5010425;28;94143;-80
2023/04/30 11:46:07;;;;;;;90.72;53.25;;;16.70;75.10;;;;;;4999529;28;94410;-81
2023/04/30 11:48:37;;;;;;;89.90;53.40;;;16.80;75.20;;;;;;5009806;28;94322;-81
2023/04/30 11:51:14;;;;;;;90.45;53.30;;;16.80;75.20;;;;;;4999950;28;95813;-81
2023/04/30 11:53:40;;;;;;;90.15;53.10;;;16.80;75.20;;;;;;5000392;28;95093;-81
2023/04/30 11:56:06;;;;;;;91.15;53.42;;;16.80;75.20;;;;;;5004225;28;94581;-81
2023/04/30 11:58:39;;;;;;;89.80;53.22;;;16.80;75.20;;;;;;5018581;28;94704;-82
2023/04/30 12:01:08;;;;;;;90.05;53.25;;;16.80;75.20;;;;;;4999561;28;96221;-81
2023/04/30 12:03:44;;;;;;;91.65;53.42;;;16.80;75.10;;;;;;5002715;28;99932;-81
2023/04/30 12:06:12;;;;;;;90.22;53.67;;;16.80;75.10;;;;;;5002361;28;94520;-82
2023/04/30 12:08:40;;;;;;;89.63;53.22;;;16.80;75.10;;;;;;5000887;28;94046;-81
2023/04/30 12:11:23;;;;;;;89.47;53.30;;;16.80;75.10;;;;;;5000076;28;97960;-81
2023/04/30 12:13:51;;;;;;;90.72;53.33;;;16.90;75.20;;;;;;5003498;28;95533;-81
2023/04/30 12:16:16;;;;;;;89.97;53.65;;;16.90;75.80;;;;;;5006071;28;95025;-82
2023/04/30 12:18:42;;;;;;;90.45;53.55;;;16.90;75.10;;;;;;5004465;28;93967;-81
2023/04/30 12:21:08;;;;;;;92.55;53.63;;;16.90;75.10;;;;;;5005829;28;95029;-80
2023/04/30 12:23:35;;;;;;;90.63;53.45;;;16.90;75.10;;;;;;5004946;28;95313;-80
2023/04/30 12:26:00;;;;;;;89.75;53.03;;;16.90;75.10;;;;;;5003747;28;95539;-81
2023/04/30 12:28:27;;;;;;;91.40;53.58;;;17.00;75.20;;;;;;5006595;28;94679;-81
2023/04/30 12:30:53;;;;;;;89.30;53.28;;;16.90;75.10;;;;;;5000897;28;98181;-81